sensor_id;sensor_type;location;lat;lon;timestamp;P1;durP1;ratioP1;P2;durP2;ratioP2
1601;SDS011;794;48.592;9.634;2022-10-15T00:35:14;0.50;;;0.40;;
1601;SDS011;794;48.592;9.634;2022-10-15T00:37:56;0.40;;;0.40;;
1601;SDS011;794;48.592;9.634;2022-10-15T00:40:39;0.50;;;0.50;;
1601;SDS011;794;48.592;9.634;2022-10-15T00:43:43;0.50;;;0.50;;
1601;SDS011;794;48.592;9.634;2022-10-15T00:46:30;0.60;;;0.40;;
1601;SDS011;794;48.592;9.634;2022-10-15T03:15:33;0.50;;;0.40;;
1601;SDS011;794;48.592;9.634;2022-10-15T03:18:02;0.70;;;0.50;;
1601;SDS011;794;48.592;9.634;2022-10-15T03:20:29;1.33;;;0.50;;
1601;SDS011;794;48.592;9.634;2022-10-15T03:22:56;0.50;;;0.50;;
1601;SDS011;794;48.592;9.634;2022-10-15T03:25:23;1.53;;;0.40;;
1601;SDS011;794;48.592;9.634;2022-10-15T03:27:50;0.73;;;0.50;;
1601;SDS011;794;48.592;9.634;2022-10-15T03:30:18;0.57;;;0.40;;
1601;SDS011;794;48.592;9.634;2022-10-15T03:32:47;0.90;;;0.40;;
1601;SDS011;794;48.592;9.634;2022-10-15T03:35:14;0.50;;;0.40;;
1601;SDS011;794;48.592;9.634;2022-10-15T03:37:41;0.70;;;0.40;;
1601;SDS011;794;48.592;9.634;2022-10-15T03:40:08;0.40;;;0.30;;
1601;SDS011;794;48.592;9.634;2022-10-15T03:42:35;0.87;;;0.30;;
1601;SDS011;794;48.592;9.634;2022-10-15T03:45:03;0.70;;;0.50;;
1601;SDS011;794;48.592;9.634;2022-10-15T03:47:30;0.70;;;0.40;;
1601;SDS011;794;48.592;9.634;2022-10-15T03:49:59;1.87;;;0.50;;
1601;SDS011;794;48.592;9.634;2022-10-15T03:52:25;0.60;;;0.40;;
1601;SDS011;794;48.592;9.634;2022-10-15T03:54:53;0.70;;;0.70;;
1601;SDS011;794;48.592;9.634;2022-10-15T03:57:20;0.50;;;0.40;;
1601;SDS011;794;48.592;9.634;2022-10-15T03:59:47;3.13;;;0.60;;
1601;SDS011;794;48.592;9.634;2022-10-15T04:02:14;0.50;;;0.50;;
1601;SDS011;794;48.592;9.634;2022-10-15T04:04:41;0.83;;;0.40;;
1601;SDS011;794;48.592;9.634;2022-10-15T04:07:10;0.43;;;0.40;;
1601;SDS011;794;48.592;9.634;2022-10-15T04:09:37;0.60;;;0.40;;
1601;SDS011;794;48.592;9.634;2022-10-15T04:12:04;0.50;;;0.40;;
1601;SDS011;794;48.592;9.634;2022-10-15T04:14:31;0.57;;;0.50;;
1601;SDS011;794;48.592;9.634;2022-10-15T04:16:58;0.90;;;0.50;;
1601;SDS011;794;48.592;9.634;2022-10-15T04:19:25;2.63;;;0.40;;
1601;SDS011;794;48.592;9.634;2022-10-15T04:21:52;2.40;;;0.70;;
1601;SDS011;794;48.592;9.634;2022-10-15T04:24:21;0.50;;;0.40;;
1601;SDS011;794;48.592;9.634;2022-10-15T04:26:48;0.70;;;0.50;;
1601;SDS011;794;48.592;9.634;2022-10-15T04:29:15;0.57;;;0.50;;
1601;SDS011;794;48.592;9.634;2022-10-15T04:31:43;0.50;;;0.40;;
1601;SDS011;794;48.592;9.634;2022-10-15T04:34:10;0.60;;;0.60;;
1601;SDS011;794;48.592;9.634;2022-10-15T04:36:37;0.60;;;0.50;;
1601;SDS011;794;48.592;9.634;2022-10-15T04:39:04;0.90;;;0.60;;
1601;SDS011;794;48.592;9.634;2022-10-15T04:41:33;0.90;;;0.60;;
1601;SDS011;794;48.592;9.634;2022-10-15T04:44:00;0.50;;;0.50;;
1601;SDS011;794;48.592;9.634;2022-10-15T04:46:28;7.50;;;5.40;;
1601;SDS011;794;48.592;9.634;2022-10-15T04:48:55;10.33;;;9.27;;
1601;SDS011;794;48.592;9.634;2022-10-15T04:51:23;14.33;;;9.63;;
1601;SDS011;794;48.592;9.634;2022-10-15T04:53:50;2.93;;;2.63;;
1601;SDS011;794;48.592;9.634;2022-10-15T04:56:18;1.07;;;0.70;;
1601;SDS011;794;48.592;9.634;2022-10-15T04:58:47;0.73;;;0.50;;
1601;SDS011;794;48.592;9.634;2022-10-15T05:01:16;0.80;;;0.80;;
1601;SDS011;794;48.592;9.634;2022-10-15T05:03:44;0.77;;;0.50;;
1601;SDS011;794;48.592;9.634;2022-10-15T05:06:12;2.70;;;2.30;;
1601;SDS011;794;48.592;9.634;2022-10-15T05:08:41;0.50;;;0.40;;
1601;SDS011;794;48.592;9.634;2022-10-15T05:11:08;4.70;;;3.10;;
1601;SDS011;794;48.592;9.634;2022-10-15T05:13:37;1.10;;;0.80;;
1601;SDS011;794;48.592;9.634;2022-10-15T05:16:09;0.77;;;0.70;;
1601;SDS011;794;48.592;9.634;2022-10-15T05:18:37;0.87;;;0.80;;
1601;SDS011;794;48.592;9.634;2022-10-15T05:21:05;2.30;;;0.57;;
1601;SDS011;794;48.592;9.634;2022-10-15T05:23:32;1.17;;;0.50;;
1601;SDS011;794;48.592;9.634;2022-10-15T05:26:01;1.53;;;0.40;;
1601;SDS011;794;48.592;9.634;2022-10-15T05:28:29;0.50;;;0.50;;
1601;SDS011;794;48.592;9.634;2022-10-15T05:31:01;0.80;;;0.60;;
1601;SDS011;794;48.592;9.634;2022-10-15T05:33:31;0.47;;;0.40;;
1601;SDS011;794;48.592;9.634;2022-10-15T05:36:06;2.20;;;0.50;;
1601;SDS011;794;48.592;9.634;2022-10-15T05:38:33;0.97;;;0.50;;
1601;SDS011;794;48.592;9.634;2022-10-15T05:41:01;0.90;;;0.60;;
1601;SDS011;794;48.592;9.634;2022-10-15T05:43:28;0.50;;;0.40;;
1601;SDS011;794;48.592;9.634;2022-10-15T05:45:55;0.50;;;0.43;;
1601;SDS011;794;48.592;9.634;2022-10-15T05:48:22;1.50;;;0.57;;
1601;SDS011;794;48.592;9.634;2022-10-15T05:50:51;0.60;;;0.57;;
1601;SDS011;794;48.592;9.634;2022-10-15T05:53:18;0.70;;;0.63;;
1601;SDS011;794;48.592;9.634;2022-10-15T05:55:46;2.97;;;0.70;;
1601;SDS011;794;48.592;9.634;2022-10-15T05:58:13;0.53;;;0.40;;
1601;SDS011;794;48.592;9.634;2022-10-15T06:00:40;0.60;;;0.50;;
1601;SDS011;794;48.592;9.634;2022-10-15T06:03:09;0.50;;;0.50;;
1601;SDS011;794;48.592;9.634;2022-10-15T06:05:37;0.50;;;0.40;;
1601;SDS011;794;48.592;9.634;2022-10-15T06:08:05;1.23;;;0.63;;
1601;SDS011;794;48.592;9.634;2022-10-15T06:10:34;0.70;;;0.40;;
1601;SDS011;794;48.592;9.634;2022-10-15T06:13:01;0.60;;;0.40;;
1601;SDS011;794;48.592;9.634;2022-10-15T06:15:29;1.50;;;1.40;;
1601;SDS011;794;48.592;9.634;2022-10-15T06:17:56;0.97;;;0.83;;
1601;SDS011;794;48.592;9.634;2022-10-15T06:20:23;1.47;;;0.70;;
1601;SDS011;794;48.592;9.634;2022-10-15T06:22:55;3.50;;;0.90;;
1601;SDS011;794;48.592;9.634;2022-10-15T06:25:24;1.47;;;0.50;;
1601;SDS011;794;48.592;9.634;2022-10-15T06:27:51;1.00;;;0.70;;
1601;SDS011;794;48.592;9.634;2022-10-15T06:30:19;0.70;;;0.70;;
1601;SDS011;794;48.592;9.634;2022-10-15T06:48:18;0.80;;;0.60;;
1601;SDS011;794;48.592;9.634;2022-10-15T06:50:45;0.87;;;0.67;;
1601;SDS011;794;48.592;9.634;2022-10-15T06:53:13;0.60;;;0.60;;
1601;SDS011;794;48.592;9.634;2022-10-15T06:55:40;1.90;;;0.53;;
1601;SDS011;794;48.592;9.634;2022-10-15T06:58:08;1.47;;;0.70;;
1601;SDS011;794;48.592;9.634;2022-10-15T07:00:35;0.80;;;0.70;;
1601;SDS011;794;48.592;9.634;2022-10-15T07:03:02;1.07;;;0.60;;
1601;SDS011;794;48.592;9.634;2022-10-15T07:05:31;3.80;;;0.63;;
1601;SDS011;794;48.592;9.634;2022-10-15T07:07:58;1.43;;;0.70;;
1601;SDS011;794;48.592;9.634;2022-10-15T07:10:26;0.67;;;0.50;;
1601;SDS011;794;48.592;9.634;2022-10-15T07:12:53;0.50;;;0.50;;
1601;SDS011;794;48.592;9.634;2022-10-15T07:15:21;0.70;;;0.50;;
1601;SDS011;794;48.592;9.634;2022-10-15T07:17:48;0.70;;;0.70;;
1601;SDS011;794;48.592;9.634;2022-10-15T07:20:16;1.43;;;0.57;;
1601;SDS011;794;48.592;9.634;2022-10-15T07:22:44;1.30;;;0.80;;
1601;SDS011;794;48.592;9.634;2022-10-15T07:25:13;1.83;;;1.57;;
1601;SDS011;794;48.592;9.634;2022-10-15T07:27:54;2.13;;;1.00;;
1601;SDS011;794;48.592;9.634;2022-10-15T07:30:39;2.20;;;1.23;;
1601;SDS011;794;48.592;9.634;2022-10-15T07:33:20;1.27;;;0.73;;
1601;SDS011;794;48.592;9.634;2022-10-15T07:36:02;2.83;;;0.77;;
1601;SDS011;794;48.592;9.634;2022-10-15T07:41:49;1.50;;;1.10;;
1601;SDS011;794;48.592;9.634;2022-10-15T07:44:30;1.43;;;0.90;;
1601;SDS011;794;48.592;9.634;2022-10-15T07:47:11;2.90;;;2.70;;
1601;SDS011;794;48.592;9.634;2022-10-15T07:49:55;3.63;;;3.27;;
1601;SDS011;794;48.592;9.634;2022-10-15T07:52:36;2.43;;;2.23;;
1601;SDS011;794;48.592;9.634;2022-10-15T09:33:45;1.27;;;1.13;;
1601;SDS011;794;48.592;9.634;2022-10-15T09:36:34;1.37;;;0.50;;
1601;SDS011;794;48.592;9.634;2022-10-15T09:42:36;0.50;;;0.50;;
1601;SDS011;794;48.592;9.634;2022-10-15T09:45:21;2.03;;;0.50;;
1601;SDS011;794;48.592;9.634;2022-10-15T09:48:05;1.73;;;0.63;;
1601;SDS011;794;48.592;9.634;2022-10-15T10:04:09;4.47;;;1.40;;
1601;SDS011;794;48.592;9.634;2022-10-15T10:06:55;3.80;;;0.60;;
1601;SDS011;794;48.592;9.634;2022-10-15T10:09:46;3.47;;;0.73;;
1601;SDS011;794;48.592;9.634;2022-10-15T10:12:31;1.57;;;0.50;;
1601;SDS011;794;48.592;9.634;2022-10-15T10:15:25;1.20;;;0.70;;
1601;SDS011;794;48.592;9.634;2022-10-15T10:18:16;6.20;;;0.83;;
1601;SDS011;794;48.592;9.634;2022-10-15T17:05:59;2.90;;;1.00;;
1601;SDS011;794;48.592;9.634;2022-10-15T17:08:42;2.60;;;1.87;;
1601;SDS011;794;48.592;9.634;2022-10-15T17:11:25;1.43;;;1.17;;
1601;SDS011;794;48.592;9.634;2022-10-15T17:14:07;1.93;;;1.00;;
1601;SDS011;794;48.592;9.634;2022-10-15T17:16:51;2.20;;;1.30;;
1601;SDS011;794;48.592;9.634;2022-10-15T18:57:55;3.23;;;2.60;;
1601;SDS011;794;48.592;9.634;2022-10-15T19:00:36;4.10;;;1.83;;
1601;SDS011;794;48.592;9.634;2022-10-15T19:03:20;2.50;;;1.30;;
1601;SDS011;794;48.592;9.634;2022-10-15T19:06:01;1.67;;;1.40;;
1601;SDS011;794;48.592;9.634;2022-10-15T19:08:45;10.93;;;8.07;;
1601;SDS011;794;48.592;9.634;2022-10-15T19:46:25;4.80;;;2.53;;
1601;SDS011;794;48.592;9.634;2022-10-15T19:49:06;3.00;;;1.20;;
1601;SDS011;794;48.592;9.634;2022-10-15T19:51:49;2.50;;;1.80;;
1601;SDS011;794;48.592;9.634;2022-10-15T19:54:31;1.50;;;1.10;;
1601;SDS011;794;48.592;9.634;2022-10-15T19:57:12;0.93;;;0.83;;
1601;SDS011;794;48.592;9.634;2022-10-15T19:59:56;4.00;;;0.93;;
1601;SDS011;794;48.592;9.634;2022-10-15T20:43:58;3.03;;;1.77;;
1601;SDS011;794;48.592;9.634;2022-10-15T20:46:40;3.20;;;1.03;;
1601;SDS011;794;48.592;9.634;2022-10-15T20:49:26;5.73;;;1.97;;
1601;SDS011;794;48.592;9.634;2022-10-15T20:52:12;4.40;;;3.27;;
1601;SDS011;794;48.592;9.634;2022-10-15T20:54:54;7.50;;;2.20;;
1601;SDS011;794;48.592;9.634;2022-10-15T20:57:35;10.73;;;4.03;;
1601;SDS011;794;48.592;9.634;2022-10-15T21:12:50;2.70;;;1.40;;
1601;SDS011;794;48.592;9.634;2022-10-15T21:15:31;3.40;;;2.20;;
1601;SDS011;794;48.592;9.634;2022-10-15T21:18:15;2.60;;;2.30;;
1601;SDS011;794;48.592;9.634;2022-10-15T21:20:59;1.70;;;1.60;;
1601;SDS011;794;48.592;9.634;2022-10-15T21:23:41;5.10;;;1.60;;
1601;SDS011;794;48.592;9.634;2022-10-15T22:23:24;5.87;;;1.87;;
1601;SDS011;794;48.592;9.634;2022-10-15T22:26:05;3.27;;;1.53;;
1601;SDS011;794;48.592;9.634;2022-10-15T22:28:46;3.10;;;1.70;;
1601;SDS011;794;48.592;9.634;2022-10-15T22:31:31;3.37;;;1.23;;
1601;SDS011;794;48.592;9.634;2022-10-15T22:34:12;1.90;;;1.23;;
1601;SDS011;794;48.592;9.634;2022-10-15T22:46:30;4.83;;;0.90;;
1601;SDS011;794;48.592;9.634;2022-10-15T22:49:12;5.80;;;1.20;;
1601;SDS011;794;48.592;9.634;2022-10-15T22:51:53;4.67;;;1.87;;
1601;SDS011;794;48.592;9.634;2022-10-15T22:54:34;5.60;;;1.93;;
1601;SDS011;794;48.592;9.634;2022-10-15T22:57:15;2.20;;;1.40;;
1601;SDS011;794;48.592;9.634;2022-10-15T22:59:57;7.10;;;1.87;;
